sensor_id;sensor_type;location;lat;lon;timestamp;P1;durP1;ratioP1;P2;durP2;ratioP2
15480;SDS011;7842;50.904;6.670;2023-04-24T00:01:53;1.50;;;1.20;;
15480;SDS011;7842;50.904;6.670;2023-04-24T00:04:20;1.30;;;1.20;;
15480;SDS011;7842;50.904;6.670;2023-04-24T00:06:46;1.30;;;1.20;;
15480;SDS011;7842;50.904;6.670;2023-04-24T00:09:14;2.38;;;1.20;;
15480;SDS011;7842;50.904;6.670;2023-04-24T00:11:40;1.40;;;1.30;;
15480;SDS011;7842;50.904;6.670;2023-04-24T00:14:06;1.63;;;1.20;;
15480;SDS011;7842;50.904;6.670;2023-04-24T00:16:32;1.58;;;1.20;;
15480;SDS011;7842;50.904;6.670;2023-04-24T00:18:58;1.63;;;1.30;;
15480;SDS011;7842;50.904;6.670;2023-04-24T00:21:27;1.60;;;1.33;;
15480;SDS011;7842;50.904;6.670;2023-04-24T00:23:53;1.65;;;1.33;;
15480;SDS011;7842;50.904;6.670;2023-04-24T00:26:19;1.73;;;1.10;;
15480;SDS011;7842;50.904;6.670;2023-04-24T00:28:45;1.30;;;1.20;;
15480;SDS011;7842;50.904;6.670;2023-04-24T00:31:11;1.77;;;1.42;;
15480;SDS011;7842;50.904;6.670;2023-04-24T00:33:37;1.55;;;1.40;;
15480;SDS011;7842;50.904;6.670;2023-04-24T00:36:03;1.60;;;1.30;;
15480;SDS011;7842;50.904;6.670;2023-04-24T00:38:30;1.90;;;1.50;;
15480;SDS011;7842;50.904;6.670;2023-04-24T00:40:56;1.52;;;1.30;;
15480;SDS011;7842;50.904;6.670;2023-04-24T00:43:22;1.50;;;1.30;;
15480;SDS011;7842;50.904;6.670;2023-04-24T00:45:48;2.00;;;1.55;;
15480;SDS011;7842;50.904;6.670;2023-04-24T00:48:14;2.20;;;1.30;;
15480;SDS011;7842;50.904;6.670;2023-04-24T00:50:40;3.08;;;1.60;;
15480;SDS011;7842;50.904;6.670;2023-04-24T00:53:07;2.67;;;1.60;;
15480;SDS011;7842;50.904;6.670;2023-04-24T00:55:33;2.05;;;1.70;;
15480;SDS011;7842;50.904;6.670;2023-04-24T00:57:59;1.73;;;1.58;;
15480;SDS011;7842;50.904;6.670;2023-04-24T01:00:25;2.40;;;1.80;;
15480;SDS011;7842;50.904;6.670;2023-04-24T01:02:52;2.20;;;1.70;;
15480;SDS011;7842;50.904;6.670;2023-04-24T01:05:18;3.75;;;1.90;;
15480;SDS011;7842;50.904;6.670;2023-04-24T01:07:44;3.20;;;2.55;;
15480;SDS011;7842;50.904;6.670;2023-04-24T01:10:12;3.20;;;2.90;;
15480;SDS011;7842;50.904;6.670;2023-04-24T01:12:39;4.82;;;3.20;;
15480;SDS011;7842;50.904;6.670;2023-04-24T01:15:05;4.15;;;3.72;;
15480;SDS011;7842;50.904;6.670;2023-04-24T01:17:32;4.15;;;3.72;;
15480;SDS011;7842;50.904;6.670;2023-04-24T01:19:58;6.10;;;4.28;;
15480;SDS011;7842;50.904;6.670;2023-04-24T01:22:25;4.57;;;4.10;;
15480;SDS011;7842;50.904;6.670;2023-04-24T01:24:51;4.80;;;4.20;;
15480;SDS011;7842;50.904;6.670;2023-04-24T01:27:18;4.65;;;4.00;;
15480;SDS011;7842;50.904;6.670;2023-04-24T01:29:45;5.93;;;4.60;;
15480;SDS011;7842;50.904;6.670;2023-04-24T01:32:12;5.38;;;4.50;;
15480;SDS011;7842;50.904;6.670;2023-04-24T01:34:38;6.20;;;4.72;;
15480;SDS011;7842;50.904;6.670;2023-04-24T01:37:05;6.50;;;5.20;;
15480;SDS011;7842;50.904;6.670;2023-04-24T01:39:31;5.82;;;5.00;;
15480;SDS011;7842;50.904;6.670;2023-04-24T01:41:58;6.68;;;5.38;;
15480;SDS011;7842;50.904;6.670;2023-04-24T01:44:24;6.50;;;5.28;;
15480;SDS011;7842;50.904;6.670;2023-04-24T01:46:51;6.75;;;5.00;;
15480;SDS011;7842;50.904;6.670;2023-04-24T01:49:18;5.97;;;5.30;;
15480;SDS011;7842;50.904;6.670;2023-04-24T01:51:45;6.75;;;5.28;;
15480;SDS011;7842;50.904;6.670;2023-04-24T01:54:12;6.30;;;5.47;;
15480;SDS011;7842;50.904;6.670;2023-04-24T01:56:40;7.40;;;6.07;;
15480;SDS011;7842;50.904;6.670;2023-04-24T01:59:07;8.35;;;6.93;;
15480;SDS011;7842;50.904;6.670;2023-04-24T02:01:35;9.25;;;7.10;;
15480;SDS011;7842;50.904;6.670;2023-04-24T02:04:04;7.40;;;6.60;;
15480;SDS011;7842;50.904;6.670;2023-04-24T02:06:31;7.93;;;6.70;;
15480;SDS011;7842;50.904;6.670;2023-04-24T02:08:57;8.27;;;6.57;;
15480;SDS011;7842;50.904;6.670;2023-04-24T02:11:24;9.60;;;7.07;;
15480;SDS011;7842;50.904;6.670;2023-04-24T02:13:50;7.65;;;6.38;;
15480;SDS011;7842;50.904;6.670;2023-04-24T02:16:16;7.80;;;6.23;;
15480;SDS011;7842;50.904;6.670;2023-04-24T02:18:45;7.90;;;6.30;;
15480;SDS011;7842;50.904;6.670;2023-04-24T02:21:11;7.05;;;6.35;;
15480;SDS011;7842;50.904;6.670;2023-04-24T02:23:37;7.80;;;6.35;;
15480;SDS011;7842;50.904;6.670;2023-04-24T02:26:03;8.13;;;6.63;;
15480;SDS011;7842;50.904;6.670;2023-04-24T02:28:29;9.82;;;6.18;;
15480;SDS011;7842;50.904;6.670;2023-04-24T02:30:55;8.10;;;6.20;;
15480;SDS011;7842;50.904;6.670;2023-04-24T02:33:21;8.23;;;6.60;;
15480;SDS011;7842;50.904;6.670;2023-04-24T02:35:47;8.70;;;7.20;;
15480;SDS011;7842;50.904;6.670;2023-04-24T02:38:13;8.90;;;6.80;;
15480;SDS011;7842;50.904;6.670;2023-04-24T02:40:39;8.70;;;7.10;;
15480;SDS011;7842;50.904;6.670;2023-04-24T02:43:05;7.87;;;6.63;;
15480;SDS011;7842;50.904;6.670;2023-04-24T02:45:31;10.17;;;8.10;;
15480;SDS011;7842;50.904;6.670;2023-04-24T02:47:59;8.95;;;7.47;;
15480;SDS011;7842;50.904;6.670;2023-04-24T02:50:25;9.80;;;7.70;;
15480;SDS011;7842;50.904;6.670;2023-04-24T02:52:51;10.85;;;7.80;;
15480;SDS011;7842;50.904;6.670;2023-04-24T02:55:17;8.80;;;7.75;;
15480;SDS011;7842;50.904;6.670;2023-04-24T02:57:43;8.88;;;7.90;;
15480;SDS011;7842;50.904;6.670;2023-04-24T03:00:09;9.40;;;8.20;;
15480;SDS011;7842;50.904;6.670;2023-04-24T03:02:36;11.00;;;8.68;;
15480;SDS011;7842;50.904;6.670;2023-04-24T03:05:02;9.85;;;8.30;;
15480;SDS011;7842;50.904;6.670;2023-04-24T03:07:29;9.70;;;8.48;;
15480;SDS011;7842;50.904;6.670;2023-04-24T03:09:56;10.18;;;8.70;;
15480;SDS011;7842;50.904;6.670;2023-04-24T03:12:25;10.02;;;8.27;;
15480;SDS011;7842;50.904;6.670;2023-04-24T03:14:51;10.30;;;8.25;;
15480;SDS011;7842;50.904;6.670;2023-04-24T03:17:17;10.73;;;8.57;;
15480;SDS011;7842;50.904;6.670;2023-04-24T03:19:43;10.43;;;8.40;;
15480;SDS011;7842;50.904;6.670;2023-04-24T03:22:09;10.52;;;8.32;;
15480;SDS011;7842;50.904;6.670;2023-04-24T03:24:36;10.27;;;7.97;;
15480;SDS011;7842;50.904;6.670;2023-04-24T03:27:02;10.85;;;8.25;;
15480;SDS011;7842;50.904;6.670;2023-04-24T03:29:28;10.07;;;7.72;;
15480;SDS011;7842;50.904;6.670;2023-04-24T03:31:54;8.73;;;7.80;;
15480;SDS011;7842;50.904;6.670;2023-04-24T03:34:20;10.82;;;7.85;;
15480;SDS011;7842;50.904;6.670;2023-04-24T03:36:46;10.00;;;7.80;;
15480;SDS011;7842;50.904;6.670;2023-04-24T03:39:15;8.68;;;7.50;;
15480;SDS011;7842;50.904;6.670;2023-04-24T03:41:41;8.88;;;7.05;;
15480;SDS011;7842;50.904;6.670;2023-04-24T03:44:07;9.03;;;7.73;;
15480;SDS011;7842;50.904;6.670;2023-04-24T03:46:33;8.45;;;6.95;;
15480;SDS011;7842;50.904;6.670;2023-04-24T03:48:59;8.65;;;7.30;;
15480;SDS011;7842;50.904;6.670;2023-04-24T03:51:25;9.02;;;6.72;;
15480;SDS011;7842;50.904;6.670;2023-04-24T03:53:52;8.27;;;7.07;;
15480;SDS011;7842;50.904;6.670;2023-04-24T03:56:18;10.15;;;7.15;;
15480;SDS011;7842;50.904;6.670;2023-04-24T03:58:45;9.18;;;7.40;;
15480;SDS011;7842;50.904;6.670;2023-04-24T04:01:11;9.75;;;7.63;;
15480;SDS011;7842;50.904;6.670;2023-04-24T04:03:38;9.15;;;6.85;;
15480;SDS011;7842;50.904;6.670;2023-04-24T04:06:04;8.88;;;7.20;;
15480;SDS011;7842;50.904;6.670;2023-04-24T04:08:30;10.13;;;7.30;;
15480;SDS011;7842;50.904;6.670;2023-04-24T04:10:56;9.75;;;7.03;;
15480;SDS011;7842;50.904;6.670;2023-04-24T04:13:22;9.10;;;6.95;;
15480;SDS011;7842;50.904;6.670;2023-04-24T04:15:48;8.67;;;6.50;;
15480;SDS011;7842;50.904;6.670;2023-04-24T04:18:14;7.35;;;6.00;;
15480;SDS011;7842;50.904;6.670;2023-04-24T04:20:40;8.52;;;6.50;;
15480;SDS011;7842;50.904;6.670;2023-04-24T04:23:06;7.70;;;6.43;;
15480;SDS011;7842;50.904;6.670;2023-04-24T04:25:32;7.95;;;6.05;;
15480;SDS011;7842;50.904;6.670;2023-04-24T04:27:59;7.07;;;5.78;;
15480;SDS011;7842;50.904;6.670;2023-04-24T04:30:25;7.78;;;5.40;;
15480;SDS011;7842;50.904;6.670;2023-04-24T04:32:51;6.30;;;5.60;;
15480;SDS011;7842;50.904;6.670;2023-04-24T04:35:17;6.60;;;5.68;;
15480;SDS011;7842;50.904;6.670;2023-04-24T04:37:43;7.60;;;5.75;;
15480;SDS011;7842;50.904;6.670;2023-04-24T04:40:09;6.88;;;5.55;;
15480;SDS011;7842;50.904;6.670;2023-04-24T04:42:36;6.68;;;5.50;;
15480;SDS011;7842;50.904;6.670;2023-04-24T04:45:05;8.10;;;6.15;;
15480;SDS011;7842;50.904;6.670;2023-04-24T04:47:33;8.80;;;6.00;;
15480;SDS011;7842;50.904;6.670;2023-04-24T04:49:59;7.47;;;5.78;;
15480;SDS011;7842;50.904;6.670;2023-04-24T04:52:25;7.30;;;5.43;;
15480;SDS011;7842;50.904;6.670;2023-04-24T04:54:52;8.32;;;6.32;;
15480;SDS011;7842;50.904;6.670;2023-04-24T04:57:18;7.82;;;6.30;;
15480;SDS011;7842;50.904;6.670;2023-04-24T04:59:44;7.70;;;6.13;;
15480;SDS011;7842;50.904;6.670;2023-04-24T05:02:10;7.28;;;5.68;;
15480;SDS011;7842;50.904;6.670;2023-04-24T05:04:36;8.25;;;6.13;;
15480;SDS011;7842;50.904;6.670;2023-04-24T05:07:02;7.38;;;5.93;;
15480;SDS011;7842;50.904;6.670;2023-04-24T05:09:28;8.50;;;6.35;;
15480;SDS011;7842;50.904;6.670;2023-04-24T05:11:54;8.70;;;6.35;;
15480;SDS011;7842;50.904;6.670;2023-04-24T05:14:21;8.02;;;6.70;;
15480;SDS011;7842;50.904;6.670;2023-04-24T05:16:47;8.77;;;6.68;;
15480;SDS011;7842;50.904;6.670;2023-04-24T05:19:13;8.00;;;6.43;;
15480;SDS011;7842;50.904;6.670;2023-04-24T05:21:40;10.15;;;6.60;;
15480;SDS011;7842;50.904;6.670;2023-04-24T05:24:06;9.77;;;7.07;;
15480;SDS011;7842;50.904;6.670;2023-04-24T05:26:32;9.13;;;6.68;;
15480;SDS011;7842;50.904;6.670;2023-04-24T05:28:58;8.65;;;6.75;;
15480;SDS011;7842;50.904;6.670;2023-04-24T05:31:25;8.40;;;6.80;;
15480;SDS011;7842;50.904;6.670;2023-04-24T05:33:51;7.13;;;6.30;;
15480;SDS011;7842;50.904;6.670;2023-04-24T05:36:17;9.40;;;6.20;;
15480;SDS011;7842;50.904;6.670;2023-04-24T05:38:43;7.75;;;5.75;;
15480;SDS011;7842;50.904;6.670;2023-04-24T05:41:09;7.88;;;5.68;;
15480;SDS011;7842;50.904;6.670;2023-04-24T05:43:34;5.88;;;4.90;;
15480;SDS011;7842;50.904;6.670;2023-04-24T05:46:00;6.30;;;5.05;;
15480;SDS011;7842;50.904;6.670;2023-04-24T05:48:26;5.33;;;4.70;;
15480;SDS011;7842;50.904;6.670;2023-04-24T05:50:52;6.85;;;5.10;;
15480;SDS011;7842;50.904;6.670;2023-04-24T05:53:18;6.60;;;4.95;;
15480;SDS011;7842;50.904;6.670;2023-04-24T05:55:44;5.07;;;4.20;;
15480;SDS011;7842;50.904;6.670;2023-04-24T05:58:11;4.57;;;4.05;;
15480;SDS011;7842;50.904;6.670;2023-04-24T06:00:37;4.80;;;4.05;;
15480;SDS011;7842;50.904;6.670;2023-04-24T06:03:07;4.35;;;3.75;;
15480;SDS011;7842;50.904;6.670;2023-04-24T06:05:33;4.10;;;3.15;;
15480;SDS011;7842;50.904;6.670;2023-04-24T06:07:59;3.40;;;2.90;;
15480;SDS011;7842;50.904;6.670;2023-04-24T06:10:25;3.03;;;2.72;;
15480;SDS011;7842;50.904;6.670;2023-04-24T06:12:52;2.80;;;2.53;;
15480;SDS011;7842;50.904;6.670;2023-04-24T06:15:21;2.90;;;2.60;;
15480;SDS011;7842;50.904;6.670;2023-04-24T06:17:47;2.65;;;2.30;;
15480;SDS011;7842;50.904;6.670;2023-04-24T06:20:13;2.42;;;2.20;;
15480;SDS011;7842;50.904;6.670;2023-04-24T06:22:39;2.78;;;2.20;;
15480;SDS011;7842;50.904;6.670;2023-04-24T06:25:05;2.40;;;2.20;;
15480;SDS011;7842;50.904;6.670;2023-04-24T06:27:32;2.40;;;2.20;;
15480;SDS011;7842;50.904;6.670;2023-04-24T06:29:58;3.75;;;2.38;;
15480;SDS011;7842;50.904;6.670;2023-04-24T06:32:24;2.67;;;2.30;;
15480;SDS011;7842;50.904;6.670;2023-04-24T06:34:51;2.85;;;2.25;;
15480;SDS011;7842;50.904;6.670;2023-04-24T06:37:18;3.47;;;2.58;;
15480;SDS011;7842;50.904;6.670;2023-04-24T06:39:44;3.85;;;3.03;;
15480;SDS011;7842;50.904;6.670;2023-04-24T06:42:12;3.23;;;2.87;;
15480;SDS011;7842;50.904;6.670;2023-04-24T06:44:38;3.30;;;2.67;;
15480;SDS011;7842;50.904;6.670;2023-04-24T06:47:08;3.60;;;2.90;;
15480;SDS011;7842;50.904;6.670;2023-04-24T06:49:35;4.70;;;3.28;;
15480;SDS011;7842;50.904;6.670;2023-04-24T06:52:01;4.68;;;3.50;;
15480;SDS011;7842;50.904;6.670;2023-04-24T06:54:27;4.40;;;3.70;;
15480;SDS011;7842;50.904;6.670;2023-04-24T06:56:53;4.50;;;3.58;;
15480;SDS011;7842;50.904;6.670;2023-04-24T06:59:19;5.22;;;3.75;;
15480;SDS011;7842;50.904;6.670;2023-04-24T07:01:45;4.30;;;3.70;;
15480;SDS011;7842;50.904;6.670;2023-04-24T07:04:11;5.50;;;3.60;;
15480;SDS011;7842;50.904;6.670;2023-04-24T07:06:38;4.13;;;3.60;;
15480;SDS011;7842;50.904;6.670;2023-04-24T07:09:04;5.45;;;3.95;;
15480;SDS011;7842;50.904;6.670;2023-04-24T07:11:30;5.20;;;3.50;;
15480;SDS011;7842;50.904;6.670;2023-04-24T07:13:56;4.07;;;3.65;;
15480;SDS011;7842;50.904;6.670;2023-04-24T07:16:22;3.85;;;3.45;;
15480;SDS011;7842;50.904;6.670;2023-04-24T07:18:48;3.65;;;3.20;;
15480;SDS011;7842;50.904;6.670;2023-04-24T07:21:13;2.40;;;1.98;;
15480;SDS011;7842;50.904;6.670;2023-04-24T07:23:39;2.70;;;1.90;;
15480;SDS011;7842;50.904;6.670;2023-04-24T07:26:06;2.70;;;1.70;;
15480;SDS011;7842;50.904;6.670;2023-04-24T07:28:32;1.48;;;1.23;;
15480;SDS011;7842;50.904;6.670;2023-04-24T07:30:57;1.73;;;1.35;;
15480;SDS011;7842;50.904;6.670;2023-04-24T07:33:24;2.38;;;1.38;;
15480;SDS011;7842;50.904;6.670;2023-04-24T07:35:53;2.15;;;1.67;;
15480;SDS011;7842;50.904;6.670;2023-04-24T07:38:19;2.60;;;1.90;;
15480;SDS011;7842;50.904;6.670;2023-04-24T07:40:47;3.30;;;1.83;;
15480;SDS011;7842;50.904;6.670;2023-04-24T07:43:13;2.50;;;2.30;;
15480;SDS011;7842;50.904;6.670;2023-04-24T07:45:38;2.28;;;1.55;;
15480;SDS011;7842;50.904;6.670;2023-04-24T07:48:04;3.38;;;1.95;;
15480;SDS011;7842;50.904;6.670;2023-04-24T07:50:33;2.42;;;1.90;;
15480;SDS011;7842;50.904;6.670;2023-04-24T07:52:59;2.22;;;1.70;;
15480;SDS011;7842;50.904;6.670;2023-04-24T07:55:25;3.50;;;2.20;;
15480;SDS011;7842;50.904;6.670;2023-04-24T07:57:51;3.20;;;2.40;;
15480;SDS011;7842;50.904;6.670;2023-04-24T08:00:16;3.60;;;3.03;;
15480;SDS011;7842;50.904;6.670;2023-04-24T08:02:42;4.03;;;3.42;;
15480;SDS011;7842;50.904;6.670;2023-04-24T08:05:08;5.47;;;4.75;;
15480;SDS011;7842;50.904;6.670;2023-04-24T08:07:36;4.03;;;2.83;;
15480;SDS011;7842;50.904;6.670;2023-04-24T08:10:03;3.78;;;3.33;;
15480;SDS011;7842;50.904;6.670;2023-04-24T08:12:29;2.10;;;1.50;;
15480;SDS011;7842;50.904;6.670;2023-04-24T08:14:54;2.35;;;1.55;;
15480;SDS011;7842;50.904;6.670;2023-04-24T08:17:20;2.37;;;1.80;;
15480;SDS011;7842;50.904;6.670;2023-04-24T08:19:46;2.10;;;1.90;;
15480;SDS011;7842;50.904;6.670;2023-04-24T08:22:16;2.80;;;2.05;;
15480;SDS011;7842;50.904;6.670;2023-04-24T08:24:42;2.88;;;2.38;;
15480;SDS011;7842;50.904;6.670;2023-04-24T08:27:08;3.03;;;2.05;;
15480;SDS011;7842;50.904;6.670;2023-04-24T08:29:35;3.87;;;2.73;;
15480;SDS011;7842;50.904;6.670;2023-04-24T08:32:01;2.40;;;2.20;;
15480;SDS011;7842;50.904;6.670;2023-04-24T08:34:27;2.70;;;2.50;;
15480;SDS011;7842;50.904;6.670;2023-04-24T08:36:53;3.40;;;3.03;;
15480;SDS011;7842;50.904;6.670;2023-04-24T08:39:19;3.40;;;3.10;;
15480;SDS011;7842;50.904;6.670;2023-04-24T08:41:45;5.53;;;4.25;;
15480;SDS011;7842;50.904;6.670;2023-04-24T08:44:13;4.80;;;4.18;;
15480;SDS011;7842;50.904;6.670;2023-04-24T08:46:41;3.70;;;2.90;;
15480;SDS011;7842;50.904;6.670;2023-04-24T08:49:08;4.85;;;3.97;;
15480;SDS011;7842;50.904;6.670;2023-04-24T08:51:35;4.93;;;4.05;;
15480;SDS011;7842;50.904;6.670;2023-04-24T08:54:02;5.20;;;4.70;;
15480;SDS011;7842;50.904;6.670;2023-04-24T08:56:28;5.65;;;4.65;;
15480;SDS011;7842;50.904;6.670;2023-04-24T08:58:56;12.15;;;9.05;;
15480;SDS011;7842;50.904;6.670;2023-04-24T09:01:22;6.72;;;4.78;;
15480;SDS011;7842;50.904;6.670;2023-04-24T09:03:49;6.35;;;5.00;;
15480;SDS011;7842;50.904;6.670;2023-04-24T09:06:16;8.83;;;6.03;;
15480;SDS011;7842;50.904;6.670;2023-04-24T09:08:44;7.45;;;5.60;;
15480;SDS011;7842;50.904;6.670;2023-04-24T09:11:11;10.45;;;6.90;;
15480;SDS011;7842;50.904;6.670;2023-04-24T09:13:37;9.65;;;7.50;;
15480;SDS011;7842;50.904;6.670;2023-04-24T09:16:03;10.43;;;6.63;;
15480;SDS011;7842;50.904;6.670;2023-04-24T09:18:29;8.98;;;6.78;;
15480;SDS011;7842;50.904;6.670;2023-04-24T09:21:08;9.65;;;6.60;;
15480;SDS011;7842;50.904;6.670;2023-04-24T09:23:35;11.00;;;7.03;;
15480;SDS011;7842;50.904;6.670;2023-04-24T09:26:04;10.55;;;6.97;;
15480;SDS011;7842;50.904;6.670;2023-04-24T09:28:34;9.07;;;6.85;;
15480;SDS011;7842;50.904;6.670;2023-04-24T09:31:11;9.52;;;7.43;;
15480;SDS011;7842;50.904;6.670;2023-04-24T09:33:39;9.52;;;6.85;;
15480;SDS011;7842;50.904;6.670;2023-04-24T09:36:05;7.60;;;6.40;;
15480;SDS011;7842;50.904;6.670;2023-04-24T09:38:33;9.75;;;7.10;;
15480;SDS011;7842;50.904;6.670;2023-04-24T09:41:00;9.13;;;6.90;;
15480;SDS011;7842;50.904;6.670;2023-04-24T09:43:28;9.45;;;7.47;;
15480;SDS011;7842;50.904;6.670;2023-04-24T09:45:57;8.50;;;7.10;;
15480;SDS011;7842;50.904;6.670;2023-04-24T09:48:33;7.03;;;5.53;;
15480;SDS011;7842;50.904;6.670;2023-04-24T09:51:00;9.03;;;6.27;;
15480;SDS011;7842;50.904;6.670;2023-04-24T09:53:27;6.10;;;5.00;;
15480;SDS011;7842;50.904;6.670;2023-04-24T09:55:53;6.13;;;4.97;;
15480;SDS011;7842;50.904;6.670;2023-04-24T09:58:24;7.38;;;4.93;;
15480;SDS011;7842;50.904;6.670;2023-04-24T10:00:53;7.00;;;4.90;;
15480;SDS011;7842;50.904;6.670;2023-04-24T10:03:20;6.27;;;4.60;;
15480;SDS011;7842;50.904;6.670;2023-04-24T10:05:47;8.20;;;5.65;;
15480;SDS011;7842;50.904;6.670;2023-04-24T10:08:13;7.53;;;5.43;;
15480;SDS011;7842;50.904;6.670;2023-04-24T10:10:40;5.93;;;5.03;;
15480;SDS011;7842;50.904;6.670;2023-04-24T10:13:07;6.53;;;4.97;;
15480;SDS011;7842;50.904;6.670;2023-04-24T10:15:33;6.32;;;4.80;;
15480;SDS011;7842;50.904;6.670;2023-04-24T10:18:00;7.47;;;5.03;;
15480;SDS011;7842;50.904;6.670;2023-04-24T10:20:26;7.67;;;5.07;;
15480;SDS011;7842;50.904;6.670;2023-04-24T10:22:54;9.55;;;5.43;;
15480;SDS011;7842;50.904;6.670;2023-04-24T10:25:22;17.58;;;10.20;;
15480;SDS011;7842;50.904;6.670;2023-04-24T10:27:49;7.75;;;5.15;;
15480;SDS011;7842;50.904;6.670;2023-04-24T10:30:17;8.00;;;5.00;;
15480;SDS011;7842;50.904;6.670;2023-04-24T10:32:43;9.00;;;5.55;;
15480;SDS011;7842;50.904;6.670;2023-04-24T10:35:09;8.82;;;5.38;;
15480;SDS011;7842;50.904;6.670;2023-04-24T10:37:44;7.63;;;5.10;;
15480;SDS011;7842;50.904;6.670;2023-04-24T10:40:11;7.75;;;5.55;;
15480;SDS011;7842;50.904;6.670;2023-04-24T10:42:42;6.85;;;5.15;;
15480;SDS011;7842;50.904;6.670;2023-04-24T10:45:29;9.15;;;5.57;;
15480;SDS011;7842;50.904;6.670;2023-04-24T10:47:59;11.27;;;6.57;;
15480;SDS011;7842;50.904;6.670;2023-04-24T10:50:50;12.10;;;8.10;;
15480;SDS011;7842;50.904;6.670;2023-04-24T10:53:21;14.45;;;9.02;;
15480;SDS011;7842;50.904;6.670;2023-04-24T10:55:52;8.00;;;5.93;;
15480;SDS011;7842;50.904;6.670;2023-04-24T10:58:22;10.35;;;6.30;;
15480;SDS011;7842;50.904;6.670;2023-04-24T11:00:58;9.57;;;6.30;;
15480;SDS011;7842;50.904;6.670;2023-04-24T11:03:32;9.07;;;5.90;;
15480;SDS011;7842;50.904;6.670;2023-04-24T11:06:02;9.52;;;6.03;;
15480;SDS011;7842;50.904;6.670;2023-04-24T11:10:59;10.93;;;6.72;;
15480;SDS011;7842;50.904;6.670;2023-04-24T11:13:27;10.20;;;6.93;;
15480;SDS011;7842;50.904;6.670;2023-04-24T11:16:54;7.03;;;5.43;;
15480;SDS011;7842;50.904;6.670;2023-04-24T11:18:59;7.17;;;5.23;;
15480;SDS011;7842;50.904;6.670;2023-04-24T11:21:32;9.35;;;6.47;;
15480;SDS011;7842;50.904;6.670;2023-04-24T11:27:12;8.60;;;6.10;;
15480;SDS011;7842;50.904;6.670;2023-04-24T11:29:40;7.93;;;5.70;;
15480;SDS011;7842;50.904;6.670;2023-04-24T11:32:23;8.82;;;5.60;;
15480;SDS011;7842;50.904;6.670;2023-04-24T11:34:59;9.93;;;6.28;;
15480;SDS011;7842;50.904;6.670;2023-04-24T11:37:55;8.23;;;5.70;;
15480;SDS011;7842;50.904;6.670;2023-04-24T11:40:22;9.43;;;5.95;;
15480;SDS011;7842;50.904;6.670;2023-04-24T11:42:48;8.73;;;5.95;;
15480;SDS011;7842;50.904;6.670;2023-04-24T11:45:16;7.90;;;5.70;;
15480;SDS011;7842;50.904;6.670;2023-04-24T11:47:49;9.55;;;5.95;;
15480;SDS011;7842;50.904;6.670;2023-04-24T11:50:18;8.90;;;5.63;;
15480;SDS011;7842;50.904;6.670;2023-04-24T11:52:46;9.93;;;6.15;;
15480;SDS011;7842;50.904;6.670;2023-04-24T11:57:46;9.25;;;6.00;;
15480;SDS011;7842;50.904;6.670;2023-04-24T12:00:15;10.80;;;5.32;;
15480;SDS011;7842;50.904;6.670;2023-04-24T12:02:43;8.27;;;5.88;;
15480;SDS011;7842;50.904;6.670;2023-04-24T12:05:18;9.43;;;5.65;;
15480;SDS011;7842;50.904;6.670;2023-04-24T12:07:45;10.30;;;5.85;;
15480;SDS011;7842;50.904;6.670;2023-04-24T12:10:11;8.23;;;5.95;;
15480;SDS011;7842;50.904;6.670;2023-04-24T12:12:37;10.48;;;6.82;;
15480;SDS011;7842;50.904;6.670;2023-04-24T12:15:06;9.73;;;6.15;;
15480;SDS011;7842;50.904;6.670;2023-04-24T12:17:33;9.90;;;6.60;;
15480;SDS011;7842;50.904;6.670;2023-04-24T12:20:00;11.38;;;7.10;;
15480;SDS011;7842;50.904;6.670;2023-04-24T12:22:27;10.60;;;6.80;;
15480;SDS011;7842;50.904;6.670;2023-04-24T12:24:57;9.52;;;5.75;;
15480;SDS011;7842;50.904;6.670;2023-04-24T12:27:31;9.32;;;6.80;;
15480;SDS011;7842;50.904;6.670;2023-04-24T12:29:58;12.23;;;6.65;;
15480;SDS011;7842;50.904;6.670;2023-04-24T12:32:25;8.63;;;5.97;;
15480;SDS011;7842;50.904;6.670;2023-04-24T12:34:51;10.18;;;6.18;;
15480;SDS011;7842;50.904;6.670;2023-04-24T12:37:18;8.95;;;5.78;;
15480;SDS011;7842;50.904;6.670;2023-04-24T12:39:46;9.32;;;5.50;;
15480;SDS011;7842;50.904;6.670;2023-04-24T12:42:27;8.45;;;5.55;;
15480;SDS011;7842;50.904;6.670;2023-04-24T12:44:58;8.93;;;6.00;;
15480;SDS011;7842;50.904;6.670;2023-04-24T12:47:25;10.48;;;6.45;;
15480;SDS011;7842;50.904;6.670;2023-04-24T12:49:51;8.30;;;6.20;;
15480;SDS011;7842;50.904;6.670;2023-04-24T12:52:27;8.83;;;5.87;;
15480;SDS011;7842;50.904;6.670;2023-04-24T12:54:54;10.10;;;6.35;;
15480;SDS011;7842;50.904;6.670;2023-04-24T12:57:21;9.57;;;6.40;;
15480;SDS011;7842;50.904;6.670;2023-04-24T12:59:47;9.73;;;6.60;;
15480;SDS011;7842;50.904;6.670;2023-04-24T13:02:14;10.85;;;7.00;;
15480;SDS011;7842;50.904;6.670;2023-04-24T13:04:43;10.00;;;7.32;;
15480;SDS011;7842;50.904;6.670;2023-04-24T13:07:09;10.77;;;8.32;;
15480;SDS011;7842;50.904;6.670;2023-04-24T13:09:35;12.35;;;7.43;;
15480;SDS011;7842;50.904;6.670;2023-04-24T13:12:02;10.38;;;6.65;;
15480;SDS011;7842;50.904;6.670;2023-04-24T13:14:28;9.67;;;7.20;;
15480;SDS011;7842;50.904;6.670;2023-04-24T13:16:54;11.48;;;6.80;;
15480;SDS011;7842;50.904;6.670;2023-04-24T13:19:20;11.85;;;7.40;;
15480;SDS011;7842;50.904;6.670;2023-04-24T13:21:46;9.57;;;6.65;;
15480;SDS011;7842;50.904;6.670;2023-04-24T13:24:12;10.15;;;7.18;;
15480;SDS011;7842;50.904;6.670;2023-04-24T13:26:38;11.98;;;6.40;;
15480;SDS011;7842;50.904;6.670;2023-04-24T13:29:04;9.38;;;6.72;;
15480;SDS011;7842;50.904;6.670;2023-04-24T13:31:29;11.17;;;7.10;;
15480;SDS011;7842;50.904;6.670;2023-04-24T13:33:55;9.43;;;6.35;;
15480;SDS011;7842;50.904;6.670;2023-04-24T13:36:21;10.77;;;6.60;;
15480;SDS011;7842;50.904;6.670;2023-04-24T13:38:46;9.53;;;6.53;;
15480;SDS011;7842;50.904;6.670;2023-04-24T13:41:12;9.57;;;6.37;;
15480;SDS011;7842;50.904;6.670;2023-04-24T13:43:38;9.15;;;6.80;;
15480;SDS011;7842;50.904;6.670;2023-04-24T13:46:03;9.40;;;6.90;;
15480;SDS011;7842;50.904;6.670;2023-04-24T13:48:29;8.77;;;6.63;;
15480;SDS011;7842;50.904;6.670;2023-04-24T13:50:55;10.05;;;7.13;;
15480;SDS011;7842;50.904;6.670;2023-04-24T13:53:21;9.27;;;7.07;;
15480;SDS011;7842;50.904;6.670;2023-04-24T13:55:46;8.47;;;7.10;;
15480;SDS011;7842;50.904;6.670;2023-04-24T13:58:12;10.20;;;6.60;;
15480;SDS011;7842;50.904;6.670;2023-04-24T14:00:38;10.60;;;6.20;;
15480;SDS011;7842;50.904;6.670;2023-04-24T14:03:04;8.77;;;6.17;;
15480;SDS011;7842;50.904;6.670;2023-04-24T14:05:30;6.72;;;5.28;;
15480;SDS011;7842;50.904;6.670;2023-04-24T14:07:56;8.48;;;5.90;;
15480;SDS011;7842;50.904;6.670;2023-04-24T14:10:23;7.70;;;5.43;;
15480;SDS011;7842;50.904;6.670;2023-04-24T14:12:50;9.20;;;5.32;;
15480;SDS011;7842;50.904;6.670;2023-04-24T14:15:16;8.35;;;5.50;;
15480;SDS011;7842;50.904;6.670;2023-04-24T14:17:45;8.10;;;5.32;;
15480;SDS011;7842;50.904;6.670;2023-04-24T14:20:12;8.00;;;5.10;;
15480;SDS011;7842;50.904;6.670;2023-04-24T14:22:38;8.05;;;5.20;;
15480;SDS011;7842;50.904;6.670;2023-04-24T14:25:05;7.15;;;5.45;;
15480;SDS011;7842;50.904;6.670;2023-04-24T14:27:31;7.68;;;5.60;;
15480;SDS011;7842;50.904;6.670;2023-04-24T14:29:57;8.10;;;5.30;;
15480;SDS011;7842;50.904;6.670;2023-04-24T14:32:23;8.02;;;5.32;;
15480;SDS011;7842;50.904;6.670;2023-04-24T14:34:49;8.03;;;5.30;;
15480;SDS011;7842;50.904;6.670;2023-04-24T14:37:14;8.27;;;5.77;;
15480;SDS011;7842;50.904;6.670;2023-04-24T14:39:40;9.82;;;5.57;;
15480;SDS011;7842;50.904;6.670;2023-04-24T14:42:06;7.75;;;5.72;;
15480;SDS011;7842;50.904;6.670;2023-04-24T14:44:31;7.80;;;5.53;;
15480;SDS011;7842;50.904;6.670;2023-04-24T14:46:58;9.10;;;5.70;;
15480;SDS011;7842;50.904;6.670;2023-04-24T14:49:23;8.77;;;5.72;;
15480;SDS011;7842;50.904;6.670;2023-04-24T14:51:49;8.38;;;5.80;;
15480;SDS011;7842;50.904;6.670;2023-04-24T14:54:15;8.27;;;6.10;;
15480;SDS011;7842;50.904;6.670;2023-04-24T14:56:48;6.75;;;5.63;;
15480;SDS011;7842;50.904;6.670;2023-04-24T14:59:14;7.78;;;6.05;;
15480;SDS011;7842;50.904;6.670;2023-04-24T15:01:40;8.10;;;5.80;;
15480;SDS011;7842;50.904;6.670;2023-04-24T15:04:05;7.32;;;5.40;;
15480;SDS011;7842;50.904;6.670;2023-04-24T15:06:34;7.73;;;5.53;;
15480;SDS011;7842;50.904;6.670;2023-04-24T15:08:59;7.05;;;5.60;;